createdAt,value
2022-11-13T00:00:38.530Z,22.70
2022-11-13T00:02:39.818Z,24.85
2022-11-13T00:03:24.013Z,24.80
2022-11-13T00:04:16.456Z,23.50
2022-11-13T00:05:02.945Z,25.73
2022-11-13T00:06:48.947Z,24.45
2022-11-13T00:07:28.080Z,25.25
2022-11-13T00:09:17.919Z,23.50
2022-11-13T00:10:03.297Z,24.67
2022-11-13T00:11:24.746Z,23.45
2022-11-13T00:12:01.767Z,23.63
2022-11-13T00:12:58.487Z,24.23
2022-11-13T00:15:10.373Z,21.83
2022-11-13T00:16:48.456Z,22.85
2022-11-13T00:17:32.403Z,21.15
2022-11-13T00:18:14.388Z,21.38
2022-11-13T00:19:04.973Z,20.92
2022-11-13T00:19:47.484Z,22.33
2022-11-13T00:20:29.345Z,23.45
2022-11-13T00:21:32.149Z,21.48
2022-11-13T00:22:43.123Z,22.07
2022-11-13T00:23:22.365Z,19.40
2022-11-13T00:24:04.016Z,20.63
2022-11-13T00:24:52.572Z,19.40
2022-11-13T00:25:53.938Z,20.45
2022-11-13T00:26:37.294Z,20.13
2022-11-13T00:27:08.833Z,19.83
2022-11-13T00:27:40.308Z,21.88
2022-11-13T00:28:13.379Z,21.23
2022-11-13T00:28:50.773Z,20.83
2022-11-13T00:29:28.851Z,22.90
2022-11-13T00:30:07.000Z,20.90
2022-11-13T00:31:00.043Z,20.55
2022-11-13T00:31:34.149Z,20.65
2022-11-13T00:32:20.778Z,19.75
2022-11-13T00:33:06.050Z,20.83
2022-11-13T00:35:26.832Z,19.85
2022-11-13T00:36:25.780Z,20.33
2022-11-13T00:38:33.947Z,18.33
2022-11-13T00:39:14.444Z,17.35
2022-11-13T00:39:59.390Z,20.40
2022-11-13T00:40:37.586Z,19.30
2022-11-13T00:41:22.119Z,20.65
2022-11-13T00:42:10.174Z,18.67
2022-11-13T00:42:58.878Z,19.60
2022-11-13T00:43:56.111Z,18.60
2022-11-13T00:44:43.696Z,19.67
2022-11-13T00:45:33.632Z,18.17
2022-11-13T00:46:19.890Z,17.93
2022-11-13T00:47:14.084Z,17.48
2022-11-13T00:47:59.925Z,19.20
2022-11-13T00:49:03.506Z,17.98
2022-11-13T00:49:41.887Z,16.85
2022-11-13T00:50:38.064Z,16.38
2022-11-13T00:51:22.213Z,17.02
2022-11-13T00:52:51.485Z,18.38
2022-11-13T00:53:29.645Z,16.05
2022-11-13T00:54:09.727Z,16.07
2022-11-13T00:54:50.954Z,15.43
2022-11-13T00:55:29.823Z,16.50
2022-11-13T00:56:27.770Z,16.33
2022-11-13T00:57:19.903Z,16.15
2022-11-13T00:57:58.949Z,14.90
2022-11-13T00:58:41.562Z,15.85
2022-11-13T00:59:49.889Z,14.52
2022-11-13T01:00:33.649Z,14.77
2022-11-13T01:01:20.246Z,16.10
2022-11-13T01:02:06.757Z,15.13
2022-11-13T01:02:58.823Z,14.93
2022-11-13T01:03:48.990Z,14.77
2022-11-13T01:04:32.789Z,14.88
2022-11-13T01:05:13.710Z,16.08
2022-11-13T01:05:54.483Z,15.38
2022-11-13T01:06:44.007Z,14.50
2022-11-13T01:07:57.996Z,16.83
2022-11-13T01:08:37.989Z,13.90
2022-11-13T01:09:18.275Z,14.10
2022-11-13T01:10:16.861Z,15.67
2022-11-13T01:11:12.532Z,15.20
2022-11-13T01:12:55.204Z,14.68
2022-11-13T01:14:03.360Z,14.93
2022-11-13T01:14:52.645Z,14.07
2022-11-13T01:15:42.235Z,14.57
2022-11-13T01:16:34.257Z,14.43
2022-11-13T01:17:17.840Z,15.57
2022-11-13T01:18:02.429Z,15.25
2022-11-13T01:19:39.779Z,14.30
2022-11-13T01:20:26.922Z,14.27
2022-11-13T01:21:27.637Z,15.10
2022-11-13T01:22:28.528Z,15.68
2022-11-13T01:23:07.510Z,15.98
2022-11-13T01:23:45.617Z,14.13
2022-11-13T01:24:41.277Z,15.50
2022-11-13T01:25:25.692Z,14.90
2022-11-13T01:26:12.434Z,15.90
2022-11-13T01:27:11.178Z,14.50
2022-11-13T01:28:09.672Z,14.98
2022-11-13T01:28:55.473Z,14.10
2022-11-13T01:29:49.635Z,15.45
2022-11-13T01:30:24.015Z,15.23
2022-11-13T01:31:03.849Z,14.85
2022-11-13T01:31:38.022Z,14.70
2022-11-13T01:32:19.853Z,15.02
2022-11-13T01:32:59.891Z,16.00
2022-11-13T01:33:52.278Z,14.60
2022-11-13T01:34:30.576Z,15.67
2022-11-13T01:35:14.738Z,14.65
2022-11-13T01:37:11.066Z,14.43
2022-11-13T01:37:57.254Z,16.30
2022-11-13T01:38:43.263Z,13.43
2022-11-13T01:39:39.847Z,14.50
2022-11-13T01:40:23.064Z,14.73
2022-11-13T01:41:20.313Z,14.07
2022-11-13T01:41:58.272Z,13.68
2022-11-13T01:42:59.444Z,14.87
2022-11-13T01:43:42.596Z,12.38
2022-11-13T01:44:24.013Z,12.73
2022-11-13T01:45:04.578Z,14.63
2022-11-13T01:46:08.102Z,14.13
2022-11-13T01:47:02.321Z,14.15
2022-11-13T01:47:54.036Z,14.43
2022-11-13T01:48:47.821Z,14.30
2022-11-13T01:49:49.585Z,13.43
2022-11-13T01:51:39.009Z,13.40
2022-11-13T01:52:44.470Z,13.68
2022-11-13T01:53:52.921Z,12.93
2022-11-13T01:54:38.200Z,12.25
2022-11-13T01:55:30.127Z,14.73
2022-11-13T01:56:13.451Z,14.18
2022-11-13T01:57:29.921Z,14.50
2022-11-13T01:58:29.962Z,13.70
2022-11-13T01:59:25.518Z,14.68
2022-11-13T02:00:05.655Z,12.82
2022-11-13T02:00:53.843Z,14.13
2022-11-13T02:01:44.716Z,14.73
2022-11-13T02:03:19.808Z,15.15
2022-11-13T02:03:58.654Z,14.02
2022-11-13T02:04:51.668Z,14.05
2022-11-13T02:05:34.524Z,14.27
2022-11-13T02:06:23.377Z,14.68
2022-11-13T02:07:16.967Z,13.52
2022-11-13T02:08:06.668Z,14.48
2022-11-13T02:09:01.550Z,13.73
2022-11-13T02:10:16.733Z,13.85
2022-11-13T02:11:05.966Z,12.55
2022-11-13T02:11:53.293Z,14.48
2022-11-13T02:12:47.816Z,13.77
2022-11-13T02:13:34.656Z,13.02
2022-11-13T02:14:18.088Z,14.07
2022-11-13T02:15:02.455Z,14.52
2022-11-13T02:15:54.952Z,15.52
2022-11-13T02:16:46.292Z,14.00
2022-11-13T02:17:54.923Z,14.90
2022-11-13T02:18:33.100Z,12.77
2022-11-13T02:19:13.448Z,13.40
2022-11-13T02:19:57.265Z,15.02
2022-11-13T02:21:05.942Z,14.63
2022-11-13T02:22:11.762Z,13.18
2022-11-13T02:23:16.921Z,13.57
2022-11-13T02:24:14.002Z,13.38
2022-11-13T02:25:08.427Z,13.52
2022-11-13T02:25:59.161Z,13.98
2022-11-13T02:26:40.415Z,14.00
2022-11-13T02:27:26.693Z,13.98
2022-11-13T02:28:08.397Z,15.02
2022-11-13T02:28:54.886Z,15.35
2022-11-13T02:29:45.759Z,15.38
2022-11-13T02:30:34.529Z,15.50
2022-11-13T02:31:41.149Z,15.18
2022-11-13T02:32:20.721Z,14.73
2022-11-13T02:32:56.509Z,14.82
2022-11-13T02:33:48.354Z,14.52
2022-11-13T02:34:46.762Z,14.93
2022-11-13T02:35:49.431Z,13.43
2022-11-13T02:36:35.131Z,14.70
2022-11-13T02:37:29.231Z,15.48
2022-11-13T02:38:20.729Z,14.63
2022-11-13T02:39:12.257Z,15.10
2022-11-13T02:40:00.444Z,15.60
2022-11-13T02:40:56.662Z,14.90
2022-11-13T02:41:39.011Z,16.13
2022-11-13T02:42:16.333Z,13.93
2022-11-13T02:42:59.726Z,15.37
2022-11-13T02:43:38.295Z,15.02
2022-11-13T02:44:21.902Z,14.25
2022-11-13T02:45:06.515Z,15.13
2022-11-13T02:45:43.710Z,14.05
2022-11-13T02:47:25.472Z,14.50
2022-11-13T02:48:05.281Z,15.05
2022-11-13T02:48:47.618Z,15.95
2022-11-13T02:49:31.901Z,15.00
2022-11-13T02:50:32.750Z,16.10
2022-11-13T02:51:11.877Z,14.70
2022-11-13T02:52:59.181Z,15.57
2022-11-13T02:53:41.463Z,15.65
2022-11-13T02:54:20.755Z,15.57
2022-11-13T02:54:54.483Z,16.80
2022-11-13T02:55:30.974Z,15.50
2022-11-13T02:56:15.615Z,16.17
2022-11-13T02:56:52.145Z,16.25
2022-11-13T02:57:30.072Z,15.97
2022-11-13T02:58:06.151Z,16.00
2022-11-13T02:58:42.978Z,17.20
2022-11-13T02:59:23.578Z,17.00
2022-11-13T02:59:55.071Z,17.40
2022-11-13T03:00:28.314Z,18.45
2022-11-13T03:01:20.929Z,16.73
2022-11-13T03:02:05.209Z,16.83
2022-11-13T03:02:47.659Z,17.52
2022-11-13T03:04:24.058Z,14.53
2022-11-13T03:05:13.663Z,14.98
2022-11-13T03:06:05.999Z,15.55
2022-11-13T03:06:48.630Z,13.90
2022-11-13T03:07:28.368Z,14.88
2022-11-13T03:08:35.690Z,14.65
2022-11-13T03:09:20.878Z,14.63
2022-11-13T03:10:05.964Z,14.77
2022-11-13T03:10:48.345Z,16.27
2022-11-13T03:11:26.271Z,14.88
2022-11-13T03:12:08.360Z,15.43
2022-11-13T03:13:16.634Z,15.25
2022-11-13T03:13:57.961Z,15.07
2022-11-13T03:14:39.109Z,15.57
2022-11-13T03:15:10.772Z,16.45
2022-11-13T03:15:43.462Z,16.27
2022-11-13T03:16:20.508Z,17.27
2022-11-13T03:16:57.439Z,17.88
2022-11-13T03:17:42.777Z,17.08
2022-11-13T03:18:24.473Z,16.75
2022-11-13T03:19:26.348Z,17.57
2022-11-13T03:20:19.263Z,15.27
2022-11-13T03:21:07.010Z,15.95
2022-11-13T03:21:56.586Z,14.82
2022-11-13T03:22:41.857Z,15.50
2022-11-13T03:23:24.204Z,15.00
2022-11-13T03:24:22.558Z,16.52
2022-11-13T03:24:59.689Z,17.00
2022-11-13T03:25:39.267Z,16.30
2022-11-13T03:26:27.765Z,15.40
2022-11-13T03:27:32.362Z,17.13
2022-11-13T03:28:21.421Z,15.25
2022-11-13T03:29:29.417Z,15.63
2022-11-13T03:30:10.417Z,16.35
2022-11-13T03:31:02.327Z,18.02
2022-11-13T03:31:40.338Z,16.63
2022-11-13T03:32:19.323Z,17.10
2022-11-13T03:33:01.881Z,16.23
2022-11-13T03:33:36.739Z,17.35
2022-11-13T03:34:23.884Z,16.60
2022-11-13T03:35:18.321Z,16.07
2022-11-13T03:36:03.623Z,15.10
2022-11-13T03:36:46.522Z,16.42
2022-11-13T03:37:28.440Z,17.50
2022-11-13T03:38:14.373Z,16.85
2022-11-13T03:38:54.281Z,16.80
2022-11-13T03:39:35.530Z,16.98
2022-11-13T03:40:20.850Z,16.92
2022-11-13T03:41:19.679Z,16.95
2022-11-13T03:43:53.649Z,16.55
2022-11-13T03:44:47.127Z,15.70
2022-11-13T03:45:33.907Z,16.25
2022-11-13T03:46:18.678Z,16.40
2022-11-13T03:46:52.498Z,15.93
2022-11-13T03:47:36.240Z,15.60
2022-11-13T03:48:21.209Z,17.02
2022-11-13T03:48:52.807Z,17.70
2022-11-13T03:50:27.427Z,16.20
2022-11-13T03:51:01.472Z,16.23
2022-11-13T03:51:46.426Z,15.55
2022-11-13T03:52:52.924Z,15.35
2022-11-13T03:54:50.516Z,15.55
2022-11-13T03:55:25.059Z,15.85
2022-11-13T03:56:13.548Z,15.18
2022-11-13T03:58:09.617Z,14.55
2022-11-13T03:58:40.386Z,16.77
2022-11-13T04:00:03.810Z,14.10
2022-11-13T04:00:40.770Z,14.25
2022-11-13T04:01:30.693Z,15.18
2022-11-13T04:02:13.901Z,14.48
2022-11-13T04:02:56.737Z,14.82
2022-11-13T04:03:36.573Z,14.95
2022-11-13T04:04:27.794Z,14.82
2022-11-13T04:05:11.079Z,16.48
2022-11-13T04:06:19.687Z,14.27
2022-11-13T04:07:30.347Z,15.23
2022-11-13T04:08:15.719Z,13.82
2022-11-13T04:08:57.359Z,14.43
2022-11-13T04:09:56.611Z,15.05
2022-11-13T04:11:04.133Z,16.33
2022-11-13T04:11:49.817Z,14.60
2022-11-13T04:12:48.362Z,14.65
2022-11-13T04:13:44.923Z,14.00
2022-11-13T04:14:34.798Z,14.88
2022-11-13T04:15:42.261Z,13.95
2022-11-13T04:16:46.590Z,15.33
2022-11-13T04:17:58.608Z,12.98
2022-11-13T04:18:42.407Z,13.65
2022-11-13T04:19:27.975Z,14.98
2022-11-13T04:20:11.427Z,15.73
2022-11-13T04:21:01.683Z,14.80
2022-11-13T04:21:45.567Z,14.00
2022-11-13T04:22:41.696Z,14.73
2022-11-13T04:24:30.569Z,13.68
2022-11-13T04:25:26.788Z,13.77
2022-11-13T04:26:36.225Z,15.45
2022-11-13T04:27:35.880Z,12.55
2022-11-13T04:28:25.544Z,14.23
2022-11-13T04:29:15.418Z,13.40
2022-11-13T04:30:09.362Z,13.98
2022-11-13T04:31:03.337Z,14.07
2022-11-13T04:33:05.108Z,13.93
2022-11-13T04:34:21.919Z,13.73
2022-11-13T04:34:59.565Z,13.83
2022-11-13T04:35:55.109Z,14.02
2022-11-13T04:36:39.057Z,15.18
2022-11-13T04:37:31.179Z,14.43
2022-11-13T04:38:26.046Z,15.88
2022-11-13T04:39:09.964Z,15.18
2022-11-13T04:39:54.254Z,15.20
2022-11-13T04:40:35.916Z,14.55
2022-11-13T04:42:06.424Z,14.93
2022-11-13T04:42:54.191Z,12.68
2022-11-13T04:43:36.329Z,14.07
2022-11-13T04:44:23.816Z,13.75
2022-11-13T04:45:22.393Z,13.43
2022-11-13T04:46:13.929Z,14.73
2022-11-13T04:47:22.001Z,13.57
2022-11-13T04:48:19.286Z,12.75
2022-11-13T04:49:01.181Z,13.65
2022-11-13T04:49:48.667Z,13.77
2022-11-13T04:50:35.878Z,13.38
2022-11-13T04:51:21.871Z,14.23
2022-11-13T04:53:12.859Z,13.52
2022-11-13T04:54:06.437Z,13.60
2022-11-13T04:54:55.312Z,13.88
2022-11-13T04:55:51.890Z,13.07
2022-11-13T04:56:32.375Z,12.88
2022-11-13T04:57:04.423Z,13.25
2022-11-13T04:58:00.259Z,14.38
2022-11-13T04:58:47.789Z,13.13
2022-11-13T04:59:24.874Z,13.20
2022-11-13T05:00:08.194Z,13.87
2022-11-13T05:01:00.172Z,13.35
2022-11-13T05:02:01.938Z,13.55
2022-11-13T05:02:43.712Z,13.60
2022-11-13T05:03:27.870Z,13.13
2022-11-13T05:04:13.105Z,13.00
2022-11-13T05:05:01.884Z,12.45
2022-11-13T05:05:44.686Z,13.13
2022-11-13T05:06:41.826Z,12.65
2022-11-13T05:07:41.419Z,13.05
2022-11-13T05:08:25.794Z,12.23
2022-11-13T05:09:24.934Z,12.05
2022-11-13T05:10:07.368Z,12.05
2022-11-13T05:10:56.153Z,12.60
2022-11-13T05:11:40.654Z,13.07
2022-11-13T05:12:28.639Z,12.05
2022-11-13T05:13:17.068Z,13.90
2022-11-13T05:14:22.879Z,13.00
2022-11-13T05:15:07.376Z,13.82
2022-11-13T05:15:56.118Z,13.07
2022-11-13T05:16:41.532Z,13.40
2022-11-13T05:17:37.985Z,13.02
2022-11-13T05:18:41.393Z,11.55
2022-11-13T05:19:40.543Z,12.90
2022-11-13T05:20:33.598Z,13.73
2022-11-13T05:21:23.188Z,11.48
2022-11-13T05:22:18.016Z,13.18
2022-11-13T05:24:05.995Z,12.63
2022-11-13T05:24:50.049Z,11.80
2022-11-13T05:25:34.571Z,13.30
2022-11-13T05:26:30.262Z,12.57
2022-11-13T05:27:07.129Z,11.98
2022-11-13T05:27:43.461Z,12.82
2022-11-13T05:28:18.294Z,13.40
2022-11-13T05:29:06.439Z,13.65
2022-11-13T05:29:54.315Z,13.70
2022-11-13T05:30:32.878Z,13.93
2022-11-13T05:31:39.711Z,14.07
2022-11-13T05:32:32.062Z,12.63
2022-11-13T05:33:32.093Z,12.47
2022-11-13T05:34:10.889Z,12.02
2022-11-13T05:36:05.933Z,12.90
2022-11-13T05:36:55.046Z,13.18
2022-11-13T05:37:44.107Z,12.93
2022-11-13T05:38:25.944Z,12.52
2022-11-13T05:39:14.912Z,13.20
2022-11-13T05:40:15.131Z,12.07
2022-11-13T05:41:33.148Z,11.15
2022-11-13T05:42:14.789Z,12.13
2022-11-13T05:43:00.139Z,11.30
2022-11-13T05:43:43.614Z,12.80
2022-11-13T05:44:23.747Z,13.60
2022-11-13T05:45:02.996Z,12.60
2022-11-13T05:45:51.924Z,11.48
2022-11-13T05:46:40.063Z,12.18
2022-11-13T05:47:16.770Z,11.35
2022-11-13T05:47:52.734Z,13.55
2022-11-13T05:48:37.496Z,12.85
2022-11-13T05:49:18.421Z,12.87
2022-11-13T05:50:00.326Z,12.05
2022-11-13T05:50:52.389Z,12.60
2022-11-13T05:51:43.949Z,12.23
2022-11-13T05:52:32.885Z,11.40
2022-11-13T05:53:39.472Z,11.13
2022-11-13T05:54:24.279Z,12.05
2022-11-13T05:55:23.292Z,13.02
2022-11-13T05:56:34.589Z,12.70
2022-11-13T05:57:24.438Z,12.00
2022-11-13T05:58:16.519Z,11.87
2022-11-13T05:59:59.606Z,12.50
2022-11-13T06:00:41.369Z,14.38
2022-11-13T06:01:32.758Z,12.68
2022-11-13T06:02:28.316Z,13.63
2022-11-13T06:03:08.341Z,12.63
2022-11-13T06:03:48.873Z,13.13
2022-11-13T06:04:28.397Z,12.48
2022-11-13T06:05:12.750Z,13.13
2022-11-13T06:06:17.428Z,13.00
2022-11-13T06:07:25.774Z,11.77
2022-11-13T06:08:14.659Z,12.32
2022-11-13T06:08:57.176Z,13.48
2022-11-13T06:09:50.159Z,12.63
2022-11-13T06:10:27.671Z,11.82
2022-11-13T06:11:30.176Z,13.63
2022-11-13T06:12:09.495Z,11.32
2022-11-13T06:13:38.682Z,12.20
2022-11-13T06:14:24.385Z,12.70
2022-11-13T06:15:15.837Z,12.57
2022-11-13T06:15:59.930Z,12.60
2022-11-13T06:17:05.452Z,12.60
2022-11-13T06:17:49.702Z,12.70
2022-11-13T06:18:37.847Z,12.48
2022-11-13T06:19:27.012Z,12.27
2022-11-13T06:20:04.804Z,11.60
2022-11-13T06:20:50.915Z,12.52
2022-11-13T06:21:39.899Z,11.10
2022-11-13T06:22:26.318Z,11.97
2022-11-13T06:23:11.932Z,11.85
2022-11-13T06:24:09.036Z,11.60
2022-11-13T06:24:50.825Z,12.00
2022-11-13T06:25:40.746Z,12.00
2022-11-13T06:26:45.442Z,12.20
2022-11-13T06:27:37.275Z,12.45
2022-11-13T06:28:34.898Z,11.68
2022-11-13T06:29:16.848Z,11.85
2022-11-13T06:30:06.094Z,10.80
2022-11-13T06:31:14.548Z,11.30
2022-11-13T06:31:56.759Z,10.30
2022-11-13T06:32:34.620Z,11.07
2022-11-13T06:33:19.062Z,12.45
2022-11-13T06:34:58.023Z,10.70
2022-11-13T06:35:35.974Z,10.98
2022-11-13T06:36:45.515Z,11.52
2022-11-13T06:37:29.638Z,10.50
2022-11-13T06:38:20.231Z,10.73
2022-11-13T06:39:04.603Z,12.10
2022-11-13T06:40:13.532Z,10.93
2022-11-13T06:41:32.568Z,11.70
2022-11-13T06:42:15.640Z,11.80
2022-11-13T06:43:03.909Z,11.63
2022-11-13T06:44:03.730Z,12.02
2022-11-13T06:44:56.851Z,11.82
2022-11-13T06:45:47.237Z,11.38
2022-11-13T06:46:34.737Z,11.18
2022-11-13T06:47:19.781Z,11.57
2022-11-13T06:47:59.595Z,11.30
2022-11-13T06:48:41.702Z,10.93
2022-11-13T06:49:24.057Z,12.10
2022-11-13T06:50:01.594Z,11.32
2022-11-13T06:50:33.552Z,11.60
2022-11-13T06:51:18.970Z,12.10
2022-11-13T06:52:16.178Z,11.27
2022-11-13T06:53:20.051Z,10.98
2022-11-13T06:54:13.812Z,11.13
2022-11-13T06:54:53.410Z,10.90
2022-11-13T06:55:49.049Z,10.97
2022-11-13T06:56:32.642Z,10.45
2022-11-13T06:57:10.120Z,11.20
2022-11-13T06:58:19.908Z,11.05
2022-11-13T06:58:52.676Z,10.55
2022-11-13T06:59:33.278Z,11.18
2022-11-13T07:00:08.638Z,11.68
2022-11-13T07:01:02.597Z,11.43
2022-11-13T07:01:53.591Z,10.73
2022-11-13T07:02:45.253Z,10.05
2022-11-13T07:03:26.164Z,11.23
2022-11-13T07:04:14.619Z,10.70
2022-11-13T07:04:58.297Z,11.02
2022-11-13T07:05:42.903Z,11.48
2022-11-13T07:06:45.056Z,11.95
2022-11-13T07:07:28.602Z,10.93
2022-11-13T07:08:13.401Z,11.80
2022-11-13T07:09:05.135Z,11.48
2022-11-13T07:09:51.715Z,11.98
2022-11-13T07:10:23.474Z,10.23
2022-11-13T07:12:06.039Z,10.70
2022-11-13T07:12:54.498Z,10.90
2022-11-13T07:13:37.241Z,11.23
2022-11-13T07:14:16.614Z,11.25
2022-11-13T07:15:00.099Z,11.63
2022-11-13T07:15:39.947Z,11.35
2022-11-13T07:17:04.162Z,11.43
2022-11-13T07:17:41.815Z,11.52
2022-11-13T07:18:35.466Z,10.77
2022-11-13T07:19:28.675Z,11.17
2022-11-13T07:20:33.243Z,10.70
2022-11-13T07:21:43.148Z,11.35
2022-11-13T07:22:43.555Z,10.57
2022-11-13T07:23:27.365Z,9.95
2022-11-13T07:24:24.131Z,10.68
2022-11-13T07:25:29.086Z,9.98
2022-11-13T07:26:20.660Z,10.20
2022-11-13T07:27:09.403Z,11.73
2022-11-13T07:27:57.386Z,10.63
2022-11-13T07:28:39.805Z,10.90
2022-11-13T07:29:24.654Z,11.07
2022-11-13T07:30:14.427Z,10.82
2022-11-13T07:31:14.187Z,11.32
2022-11-13T07:31:50.508Z,11.80
2022-11-13T07:32:41.671Z,11.80
2022-11-13T07:33:49.697Z,9.77
2022-11-13T07:34:26.554Z,10.85
2022-11-13T07:35:22.116Z,11.73
2022-11-13T07:36:05.301Z,10.55
2022-11-13T07:37:08.380Z,11.27
2022-11-13T07:38:48.692Z,10.73
2022-11-13T07:39:55.395Z,11.70
2022-11-13T07:40:49.894Z,11.00
2022-11-13T07:41:44.458Z,10.50
2022-11-13T07:42:40.379Z,10.63
2022-11-13T07:43:17.173Z,10.85
2022-11-13T07:43:48.869Z,10.93
2022-11-13T07:44:52.804Z,11.55
2022-11-13T07:45:22.586Z,10.60
2022-11-13T07:46:03.012Z,11.27
2022-11-13T07:46:42.419Z,11.00
2022-11-13T07:47:24.823Z,12.43
2022-11-13T07:48:03.699Z,10.90
2022-11-13T07:48:37.721Z,11.27
2022-11-13T07:49:15.968Z,12.40
2022-11-13T07:49:47.776Z,11.25
2022-11-13T07:50:21.720Z,12.23
2022-11-13T07:50:56.435Z,10.75
2022-11-13T07:51:38.554Z,12.53
2022-11-13T07:52:12.915Z,11.57
2022-11-13T07:52:50.198Z,10.60
2022-11-13T07:53:24.039Z,11.80
2022-11-13T07:54:05.923Z,11.00
2022-11-13T07:54:43.390Z,11.43
2022-11-13T07:55:28.460Z,11.90
2022-11-13T07:56:04.447Z,11.15
2022-11-13T07:56:42.110Z,11.15
2022-11-13T07:57:18.256Z,11.45
2022-11-13T07:57:52.420Z,11.53
2022-11-13T07:58:24.355Z,11.43
2022-11-13T07:58:55.927Z,11.93
2022-11-13T07:59:38.305Z,12.35
2022-11-13T08:00:13.196Z,12.68
2022-11-13T08:00:49.718Z,11.43
2022-11-13T08:01:25.880Z,12.48
2022-11-13T08:02:03.168Z,12.48
2022-11-13T08:02:40.649Z,11.95
2022-11-13T08:03:29.053Z,11.80
2022-11-13T08:04:14.486Z,12.23
2022-11-13T08:04:51.662Z,12.07
2022-11-13T08:05:41.412Z,12.20
2022-11-13T08:06:30.511Z,10.93
2022-11-13T08:07:13.658Z,10.45
2022-11-13T08:07:52.213Z,10.95
2022-11-13T08:08:35.925Z,10.43
2022-11-13T08:09:12.445Z,10.77
2022-11-13T08:09:46.585Z,11.98
2022-11-13T08:10:27.150Z,10.43
2022-11-13T08:10:59.089Z,11.17
2022-11-13T08:11:36.460Z,10.52
2022-11-13T08:12:23.823Z,11.32
2022-11-13T08:13:08.032Z,11.15
2022-11-13T08:13:48.213Z,11.02
2022-11-13T08:14:30.027Z,11.60
2022-11-13T08:15:13.140Z,11.15
2022-11-13T08:15:48.067Z,10.73
2022-11-13T08:16:29.273Z,11.65
2022-11-13T08:17:16.781Z,11.75
2022-11-13T08:18:17.546Z,11.87
2022-11-13T08:18:56.077Z,10.93
2022-11-13T08:19:42.017Z,10.57
2022-11-13T08:20:26.276Z,11.80
2022-11-13T08:21:38.702Z,11.05
2022-11-13T08:22:22.719Z,10.75
2022-11-13T08:23:04.004Z,10.15
2022-11-13T08:23:55.008Z,11.25
2022-11-13T08:24:59.782Z,11.43
2022-11-13T08:25:40.851Z,10.40
2022-11-13T08:26:17.810Z,11.40
2022-11-13T08:26:52.058Z,11.32
2022-11-13T08:27:28.085Z,14.02
2022-11-13T08:28:00.715Z,12.32
2022-11-13T08:28:43.041Z,11.50
2022-11-13T08:29:23.401Z,11.52
2022-11-13T08:29:59.606Z,12.73
2022-11-13T08:30:46.308Z,12.48
2022-11-13T08:32:29.137Z,11.95
2022-11-13T08:33:17.599Z,13.70
2022-11-13T08:34:03.238Z,12.75
2022-11-13T08:34:38.545Z,12.32
2022-11-13T08:35:17.382Z,13.65
2022-11-13T08:36:06.513Z,13.10
2022-11-13T08:36:44.792Z,12.25
2022-11-13T08:37:34.219Z,12.70
2022-11-13T08:38:31.451Z,13.20
2022-11-13T08:39:22.817Z,11.25
2022-11-13T08:40:04.772Z,12.30
2022-11-13T08:40:53.276Z,13.67
2022-11-13T08:42:25.666Z,12.45
2022-11-13T08:43:10.306Z,12.50
2022-11-13T08:44:18.846Z,13.10
2022-11-13T08:46:03.207Z,12.43
2022-11-13T08:46:44.257Z,11.95
2022-11-13T08:47:39.570Z,14.23
2022-11-13T08:48:55.651Z,11.27
2022-11-13T08:49:35.650Z,12.73
2022-11-13T08:50:22.418Z,12.55
2022-11-13T08:51:58.245Z,12.52
2022-11-13T08:52:48.801Z,13.23
2022-11-13T08:53:55.600Z,13.02
2022-11-13T08:54:38.726Z,12.93
2022-11-13T08:55:49.549Z,12.40
2022-11-13T08:56:48.233Z,12.73
2022-11-13T08:57:30.711Z,12.70
2022-11-13T08:58:14.127Z,13.13
2022-11-13T08:58:48.302Z,12.27
2022-11-13T08:59:54.618Z,13.90
2022-11-13T09:00:45.177Z,11.77
2022-11-13T09:01:27.812Z,12.68
2022-11-13T09:02:16.234Z,13.68
2022-11-13T09:03:09.950Z,13.82
2022-11-13T09:04:03.005Z,12.60
2022-11-13T09:04:50.630Z,12.43
2022-11-13T09:05:46.644Z,13.27
2022-11-13T09:06:30.528Z,12.45
2022-11-13T09:08:19.372Z,11.50
2022-11-13T09:08:52.715Z,11.85
2022-11-13T09:09:27.110Z,12.73
2022-11-13T09:10:26.067Z,11.98
2022-11-13T09:11:14.846Z,13.40
2022-11-13T09:13:07.661Z,12.70
2022-11-13T09:14:07.591Z,13.05
2022-11-13T09:14:52.371Z,12.30
2022-11-13T09:15:31.565Z,12.60
2022-11-13T09:16:17.122Z,12.47
2022-11-13T09:18:55.855Z,12.48
2022-11-13T09:19:32.616Z,12.93
2022-11-13T09:20:13.787Z,12.48
2022-11-13T09:21:45.160Z,12.25
2022-11-13T09:22:28.009Z,13.13
2022-11-13T09:23:49.007Z,12.63
2022-11-13T09:25:00.297Z,11.47
2022-11-13T09:25:48.434Z,11.38
2022-11-13T09:27:34.662Z,12.07
2022-11-13T09:28:13.735Z,14.50
2022-11-13T09:30:15.307Z,12.50
2022-11-13T09:30:57.938Z,12.65
2022-11-13T09:31:41.427Z,12.10
2022-11-13T09:33:25.037Z,12.27
2022-11-13T09:34:42.617Z,12.88
2022-11-13T09:37:02.083Z,11.20
2022-11-13T09:37:58.547Z,12.50
2022-11-13T09:38:45.182Z,11.15
2022-11-13T09:39:23.257Z,11.38
2022-11-13T09:40:01.664Z,12.38
2022-11-13T09:40:45.883Z,11.93
2022-11-13T09:41:26.906Z,10.95
2022-11-13T09:42:30.494Z,11.53
2022-11-13T09:43:12.787Z,11.27
2022-11-13T09:43:49.717Z,12.77
2022-11-13T09:44:57.162Z,11.70
2022-11-13T09:45:57.384Z,13.10
2022-11-13T09:46:48.049Z,12.27
2022-11-13T09:47:26.999Z,12.05
2022-11-13T09:48:41.520Z,13.63
2022-11-13T09:49:44.615Z,13.18
2022-11-13T09:50:45.681Z,11.27
2022-11-13T09:51:48.450Z,11.53
2022-11-13T09:53:06.506Z,10.88
2022-11-13T09:53:58.776Z,9.80
2022-11-13T09:54:41.452Z,11.00
2022-11-13T09:55:52.779Z,12.07
2022-11-13T09:58:17.376Z,10.70
2022-11-13T09:58:59.571Z,11.23
2022-11-13T10:00:08.420Z,12.05
2022-11-13T10:01:02.613Z,10.02
2022-11-13T10:02:16.599Z,10.57
2022-11-13T10:04:51.460Z,10.63
2022-11-13T10:06:01.274Z,11.23
2022-11-13T10:07:03.985Z,11.48
2022-11-13T10:08:09.750Z,10.60
2022-11-13T10:09:05.965Z,10.93
2022-11-13T10:10:03.773Z,10.95
2022-11-13T10:11:02.726Z,11.93
2022-11-13T10:12:07.924Z,10.88
2022-11-13T10:13:08.123Z,10.23
2022-11-13T10:14:05.551Z,10.57
2022-11-13T10:14:49.032Z,10.77
2022-11-13T10:15:33.952Z,10.13
2022-11-13T10:16:59.613Z,11.63
2022-11-13T10:18:44.085Z,9.98
2022-11-13T10:19:44.316Z,9.18
2022-11-13T10:20:26.513Z,10.02
2022-11-13T10:21:35.559Z,8.93
2022-11-13T10:22:33.000Z,9.57
2022-11-13T10:23:39.172Z,9.43
2022-11-13T10:24:23.756Z,9.38
2022-11-13T10:25:03.166Z,9.88
2022-11-13T10:25:59.982Z,10.48
2022-11-13T10:26:50.826Z,10.30
2022-11-13T10:27:36.713Z,9.80
2022-11-13T10:29:29.665Z,10.73
2022-11-13T10:30:19.039Z,11.70
2022-11-13T10:30:56.713Z,11.57
2022-11-13T10:31:43.976Z,10.43
2022-11-13T10:32:28.761Z,11.57
2022-11-13T10:33:11.085Z,11.32
2022-11-13T10:34:06.972Z,10.38
2022-11-13T10:35:47.047Z,9.32
2022-11-13T10:36:38.732Z,10.95
2022-11-13T10:37:29.567Z,10.85
2022-11-13T10:38:41.347Z,10.27
2022-11-13T10:39:32.149Z,10.43
2022-11-13T10:40:53.941Z,9.75
2022-11-13T10:41:41.082Z,9.47
2022-11-13T10:42:31.993Z,9.25
2022-11-13T10:43:16.057Z,9.25
2022-11-13T10:44:21.251Z,10.10
2022-11-13T10:45:12.126Z,10.27
2022-11-13T10:47:49.487Z,8.52
2022-11-13T10:48:26.597Z,9.52
2022-11-13T10:49:20.687Z,9.10
2022-11-13T10:50:22.963Z,9.00
2022-11-13T10:51:04.851Z,8.90
2022-11-13T10:51:39.416Z,9.05
2022-11-13T10:52:30.666Z,9.68
2022-11-13T10:53:19.651Z,9.65
2022-11-13T10:53:55.010Z,9.10
2022-11-13T10:54:37.304Z,7.97
2022-11-13T10:55:33.862Z,9.45
2022-11-13T10:56:30.874Z,9.57
2022-11-13T10:57:09.769Z,8.55
2022-11-13T10:57:47.069Z,9.27
2022-11-13T10:58:26.772Z,8.50
2022-11-13T10:59:15.879Z,8.05
2022-11-13T10:59:52.287Z,8.43
2022-11-13T11:00:41.730Z,8.75
2022-11-13T11:01:29.073Z,7.65
2022-11-13T11:02:14.770Z,7.97
2022-11-13T11:02:56.509Z,8.60
2022-11-13T11:03:30.812Z,8.90
2022-11-13T11:04:21.697Z,8.40
2022-11-13T11:05:24.181Z,7.18
2022-11-13T11:06:08.166Z,8.17
2022-11-13T11:07:45.017Z,7.45
2022-11-13T11:08:40.635Z,8.32
2022-11-13T11:09:26.366Z,7.85
2022-11-13T11:10:06.904Z,8.48
2022-11-13T11:11:16.627Z,8.60
2022-11-13T11:12:31.363Z,7.72
2022-11-13T11:13:20.833Z,7.93
2022-11-13T11:13:57.184Z,7.45
2022-11-13T11:14:34.320Z,8.07
2022-11-13T11:15:24.059Z,8.30
2022-11-13T11:16:03.673Z,8.32
2022-11-13T11:16:39.355Z,8.50
2022-11-13T11:17:16.986Z,8.88
2022-11-13T11:18:07.812Z,8.10
2022-11-13T11:18:53.041Z,7.40